Time;durP1;ratioP1;P1;durP2;ratioP2;P2;SDS_P1;SDS_P2;PMS_P1;PMS_P2;Temp;Humidity;BMP_temperature;BMP_pressure;BME280_temperature;BME280_humidity;BME280_pressure;Samples;Min_cycle;Max_cycle;Signal;HPM_P1;HPM_P2
2022/04/26 03:36:06;;;;;;;18.33;10.95;;;9.20;93.40;;;;;;4920770;29;20102;-66
2022/04/26 03:38:32;;;;;;;20.92;10.90;;;9.10;93.40;;;;;;4934568;29;20103;-66
2022/04/26 03:40:58;;;;;;;16.17;9.38;;;9.10;93.50;;;;;;4934393;29;20051;-66
2022/04/26 03:43:23;;;;;;;18.65;10.73;;;9.10;93.60;;;;;;4933556;29;20032;-66
2022/04/26 03:45:49;;;;;;;19.58;10.63;;;9.10;93.60;;;;;;4934426;29;20051;-67
2022/04/26 03:48:14;;;;;;;17.88;10.95;;;9.00;93.60;;;;;;4935310;29;20031;-67
2022/04/26 03:50:40;;;;;;;18.65;10.45;;;9.00;93.70;;;;;;4933286;29;20468;-66
2022/04/26 03:53:05;;;;;;;16.33;9.63;;;9.00;93.70;;;;;;4933951;29;20466;-66
2022/04/26 03:55:31;;;;;;;20.25;11.00;;;9.00;93.70;;;;;;4933853;29;20023;-66
2022/04/26 03:57:57;;;;;;;16.80;10.52;;;9.00;93.70;;;;;;4934978;29;20399;-67
2022/04/26 04:00:23;;;;;;;20.15;10.80;;;9.00;93.70;;;;;;4932881;29;20039;-67
2022/04/26 04:02:49;;;;;;;17.67;9.93;;;9.00;93.80;;;;;;4925861;29;20044;-67
2022/04/26 04:05:14;;;;;;;19.27;10.60;;;9.00;93.80;;;;;;4922832;29;20031;-67
2022/04/26 04:07:40;;;;;;;19.00;10.73;;;9.00;93.90;;;;;;4934278;29;20032;-67
2022/04/26 04:10:06;;;;;;;16.88;10.38;;;9.00;93.90;;;;;;4933989;29;20040;-67
2022/04/26 04:12:31;;;;;;;17.80;9.82;;;9.00;93.90;;;;;;4933330;29;20399;-67
2022/04/26 04:14:57;;;;;;;20.83;10.45;;;9.00;93.90;;;;;;4934955;29;20019;-67
2022/04/26 04:17:22;;;;;;;17.08;9.30;;;9.00;93.90;;;;;;4933479;29;20047;-67
2022/04/26 04:19:48;;;;;;;18.60;10.60;;;9.10;93.90;;;;;;4934499;29;20498;-67
2022/04/26 04:22:14;;;;;;;18.70;11.18;;;9.10;93.80;;;;;;4933012;29;20571;-66
2022/04/26 04:24:40;;;;;;;17.05;10.35;;;9.10;93.80;;;;;;4933779;29;20379;-66
2022/04/26 04:27:05;;;;;;;15.52;9.75;;;9.10;93.70;;;;;;4933722;29;20055;-67
2022/04/26 04:29:31;;;;;;;22.85;12.35;;;9.10;93.70;;;;;;4934457;29;20460;-67
2022/04/26 04:31:57;;;;;;;17.50;10.95;;;9.20;93.70;;;;;;4931298;29;20046;-67
2022/04/26 04:34:22;;;;;;;18.02;10.38;;;9.10;93.70;;;;;;4934190;29;20024;-66
2022/04/26 04:36:48;;;;;;;16.63;9.15;;;9.20;93.60;;;;;;4934032;29;20467;-67
2022/04/26 04:39:19;;;;;;;17.38;9.50;;;9.30;93.70;;;;;;4934619;29;20024;-67
2022/04/26 04:41:45;;;;;;;14.13;8.90;;;9.30;93.60;;;;;;4931290;29;20040;-67
2022/04/26 04:44:11;;;;;;;18.30;10.52;;;9.30;93.60;;;;;;4934159;29;20498;-66
2022/04/26 04:46:36;;;;;;;19.35;9.90;;;9.30;93.60;;;;;;4933083;29;20027;-66
2022/04/26 04:49:03;;;;;;;17.75;10.77;;;9.40;93.60;;;;;;4916684;29;20134;-65
2022/04/26 04:51:28;;;;;;;17.55;9.55;;;9.40;93.60;;;;;;4932929;29;20459;-66
2022/04/26 04:53:54;;;;;;;17.00;9.98;;;9.50;93.60;;;;;;4932554;29;20377;-66
2022/04/26 04:56:19;;;;;;;15.95;8.93;;;9.50;93.60;;;;;;4927549;29;20040;-66
2022/04/26 04:58:45;;;;;;;17.55;9.15;;;9.50;93.40;;;;;;4932390;29;20024;-66
2022/04/26 05:01:10;;;;;;;13.93;8.80;;;9.60;93.30;;;;;;4925999;29;20031;-66
2022/04/26 05:03:36;;;;;;;20.48;10.30;;;9.60;93.50;;;;;;4915277;29;20369;-65
2022/04/26 05:06:01;;;;;;;17.25;9.07;;;9.60;93.10;;;;;;4933264;29;20024;-66
2022/04/26 05:08:27;;;;;;;15.30;9.25;;;9.60;93.10;;;;;;4933958;29;20575;-66
2022/04/26 05:10:52;;;;;;;19.23;9.00;;;9.60;93.00;;;;;;4936501;29;20024;-66
2022/04/26 05:13:18;;;;;;;13.75;8.88;;;9.70;93.00;;;;;;4937222;29;20034;-66
2022/04/26 05:15:44;;;;;;;19.55;9.85;;;9.80;93.00;;;;;;4935252;29;20024;-65
2022/04/26 05:18:12;;;;;;;17.05;8.73;;;9.90;93.00;;;;;;4918710;29;20546;-66
2022/04/26 05:20:38;;;;;;;15.63;9.35;;;10.00;93.00;;;;;;4920676;29;20435;-65
2022/04/26 05:25:48;;;;;;;17.10;8.40;;;10.10;92.90;;;;;;4936780;29;20027;-66
2022/04/26 05:28:13;;;;;;;15.88;8.07;;;10.10;92.70;;;;;;4937737;29;20550;-67
2022/04/26 05:30:39;;;;;;;14.63;7.75;;;10.20;92.70;;;;;;4935931;29;20078;-66
2022/04/26 05:33:04;;;;;;;16.00;8.00;;;10.20;92.60;;;;;;4937463;29;20027;-67
2022/04/26 05:35:30;;;;;;;12.27;7.47;;;10.30;92.50;;;;;;4936432;29;20032;-67
2022/04/26 05:37:55;;;;;;;13.00;7.78;;;10.40;92.40;;;;;;4937390;29;20043;-67
2022/04/26 05:40:21;;;;;;;11.02;7.43;;;10.40;92.30;;;;;;4936622;29;20063;-67
2022/04/26 05:42:46;;;;;;;13.48;7.50;;;10.40;92.00;;;;;;4922264;29;20032;-67
2022/04/26 05:45:12;;;;;;;14.48;8.38;;;10.40;92.00;;;;;;4936170;29;20423;-68
2022/04/26 05:47:41;;;;;;;11.82;6.93;;;10.50;91.90;;;;;;4936134;29;20119;-64
2022/04/26 05:50:11;;;;;;;12.15;7.60;;;10.50;91.70;;;;;;4937609;29;20027;-68
2022/04/26 05:52:37;;;;;;;12.07;7.38;;;10.60;91.60;;;;;;4936043;29;20062;-68
2022/04/26 05:55:07;;;;;;;13.55;7.60;;;10.60;91.40;;;;;;4936940;29;20059;-66
2022/04/26 05:57:40;;;;;;;11.35;6.95;;;10.60;91.40;;;;;;4936234;29;20523;-68
2022/04/26 06:00:07;;;;;;;12.02;7.07;;;10.70;91.30;;;;;;4937458;29;20435;-67
2022/04/26 06:02:33;;;;;;;11.63;7.00;;;10.70;91.20;;;;;;4935554;29;20047;-67
2022/04/26 06:04:58;;;;;;;12.23;7.03;;;10.70;91.10;;;;;;4937172;29;20487;-68
2022/04/26 06:07:24;;;;;;;14.95;7.95;;;10.70;90.90;;;;;;4936171;29;20079;-70
2022/04/26 06:09:53;;;;;;;10.88;7.00;;;10.80;90.90;;;;;;4937085;29;20114;-67
2022/04/26 06:12:19;;;;;;;17.67;6.80;;;10.80;90.90;;;;;;4935072;29;20039;-65
2022/04/26 06:14:44;;;;;;;10.95;6.57;;;10.90;90.80;;;;;;4937067;29;20039;-68
2022/04/26 06:17:10;;;;;;;15.88;6.88;;;10.90;90.50;;;;;;4935754;29;20032;-69
2022/04/26 06:19:35;;;;;;;12.13;6.88;;;10.90;90.30;;;;;;4936573;29;20479;-68
2022/04/26 06:22:01;;;;;;;12.98;6.55;;;10.90;90.10;;;;;;4918420;29;20051;-68
2022/04/26 06:24:26;;;;;;;12.90;6.53;;;11.00;89.90;;;;;;4935684;29;20065;-69
2022/04/26 06:26:52;;;;;;;11.90;6.30;;;11.00;89.80;;;;;;4907784;29;20452;-68
2022/04/26 06:29:18;;;;;;;10.93;6.72;;;11.00;89.40;;;;;;4935407;29;20399;-69
2022/04/26 06:31:43;;;;;;;11.52;5.65;;;11.00;88.70;;;;;;4934878;29;20023;-70
2022/04/26 06:34:09;;;;;;;12.35;5.38;;;11.10;88.30;;;;;;4936245;29;20115;-68
2022/04/26 06:36:34;;;;;;;8.05;5.05;;;11.10;87.50;;;;;;4935174;29;20053;-69
2022/04/26 06:39:00;;;;;;;9.93;5.70;;;11.20;87.50;;;;;;4936560;29;20031;-69
2022/04/26 06:41:25;;;;;;;10.75;4.80;;;11.20;87.60;;;;;;4934147;29;20043;-69
2022/04/26 06:43:50;;;;;;;8.65;4.40;;;11.30;87.50;;;;;;4919434;29;20030;-69
2022/04/26 06:46:16;;;;;;;9.07;4.93;;;11.30;86.20;;;;;;4918209;29;20361;-68
2022/04/26 06:48:41;;;;;;;8.90;4.32;;;11.40;85.80;;;;;;4933058;29;20107;-68
2022/04/26 06:51:07;;;;;;;10.23;4.88;;;11.40;85.50;;;;;;4924381;29;20502;-68
2022/04/26 06:53:34;;;;;;;11.77;4.22;;;11.50;85.40;;;;;;4931294;29;20035;-68
2022/04/26 06:56:00;;;;;;;9.77;4.72;;;11.50;85.30;;;;;;4923614;29;20020;-69
2022/04/26 06:58:26;;;;;;;6.00;4.00;;;11.60;85.20;;;;;;4935696;29;20040;-69
2022/04/26 07:00:51;;;;;;;10.07;4.72;;;11.70;84.90;;;;;;4933265;29;20024;-69
2022/04/26 07:03:18;;;;;;;7.50;4.57;;;11.70;84.70;;;;;;4926463;29;20447;-69
2022/04/26 07:05:44;;;;;;;7.22;4.25;;;11.80;83.90;;;;;;4924203;29;20032;-70
2022/04/26 07:08:09;;;;;;;5.40;3.80;;;11.90;83.20;;;;;;4922139;29;20032;-69
2022/04/26 07:10:37;;;;;;;5.55;3.75;;;12.00;82.70;;;;;;4936560;29;20471;-68
2022/04/26 07:13:02;;;;;;;7.75;3.83;;;12.00;82.30;;;;;;4920060;29;20024;-71
2022/04/26 07:15:28;;;;;;;7.20;3.83;;;12.10;81.80;;;;;;4927570;29;20167;-70
2022/04/26 07:17:54;;;;;;;7.32;3.75;;;12.10;81.30;;;;;;4926788;29;20353;-70
2022/04/26 07:20:19;;;;;;;5.30;3.28;;;12.10;80.70;;;;;;4934915;29;20023;-70
2022/04/26 07:22:45;;;;;;;5.82;2.70;;;12.20;80.60;;;;;;4933783;29;20048;-70
2022/04/26 07:25:10;;;;;;;4.63;3.10;;;12.30;80.00;;;;;;4931403;29;20031;-70
2022/04/26 07:27:40;;;;;;;5.55;3.10;;;12.40;78.50;;;;;;4930502;29;20048;-70
2022/04/26 07:30:06;;;;;;;5.00;2.58;;;12.40;78.20;;;;;;4908486;29;20088;-69
2022/04/26 07:35:16;;;;;;;6.63;2.80;;;12.50;77.10;;;;;;4930111;29;20039;-71
2022/04/26 07:37:42;;;;;;;5.18;2.60;;;12.50;77.60;;;;;;4918749;29;20028;-71
2022/04/26 07:40:09;;;;;;;3.60;2.42;;;12.60;76.20;;;;;;4934272;29;20127;-70
2022/04/26 07:42:35;;;;;;;3.85;2.47;;;12.60;76.20;;;;;;4932047;29;20042;-70
2022/04/26 07:45:00;;;;;;;4.75;2.75;;;12.60;75.40;;;;;;4927927;29;20036;-70
2022/04/26 07:47:26;;;;;;;4.13;2.40;;;12.60;74.00;;;;;;4931858;29;20039;-69
2022/04/26 07:49:55;;;;;;;5.93;2.83;;;12.60;73.30;;;;;;4923899;29;20102;-69
2022/04/26 07:52:23;;;;;;;5.53;2.65;;;12.60;73.50;;;;;;4930091;29;20040;-70
2022/04/26 07:54:48;;;;;;;4.32;2.70;;;12.70;73.60;;;;;;4933850;29;20028;-70
2022/04/26 07:57:14;;;;;;;4.50;2.90;;;12.70;73.70;;;;;;4933395;29;20550;-70
2022/04/26 07:59:40;;;;;;;3.35;2.17;;;12.70;72.80;;;;;;4923200;29;20032;-69
2022/04/26 08:02:10;;;;;;;5.90;2.40;;;12.70;71.10;;;;;;4933242;29;20082;-69
2022/04/26 08:04:35;;;;;;;4.35;2.40;;;12.70;71.30;;;;;;4917034;29;20423;-69
2022/04/26 08:07:01;;;;;;;3.45;2.42;;;12.80;71.30;;;;;;4931287;29;20118;-69
2022/04/26 08:09:26;;;;;;;5.65;2.97;;;12.80;70.90;;;;;;4930282;29;20028;-68
2022/04/26 08:11:52;;;;;;;5.88;2.47;;;12.90;71.10;;;;;;4926895;29;20499;-69
2022/04/26 08:14:20;;;;;;;4.35;2.10;;;12.90;71.50;;;;;;4923571;29;20402;-69
2022/04/26 08:16:45;;;;;;;5.18;2.42;;;13.00;71.70;;;;;;4925944;29;20066;-69
2022/04/26 08:19:11;;;;;;;5.13;2.28;;;13.10;71.60;;;;;;4933308;29;20059;-69
2022/04/26 08:21:37;;;;;;;3.92;2.22;;;13.20;71.70;;;;;;4933550;29;20044;-69
2022/04/26 08:29:31;;;;;;;4.05;2.13;;;13.50;69.40;;;;;;4916807;29;20113;-69
2022/04/26 08:31:57;;;;;;;3.20;2.00;;;13.50;69.00;;;;;;4933514;29;20036;-69
2022/04/26 08:34:23;;;;;;;2.92;1.85;;;13.60;67.80;;;;;;4922789;29;20028;-70
2022/04/26 08:36:48;;;;;;;2.60;1.70;;;13.70;67.20;;;;;;4926892;29;20487;-68
2022/04/26 08:39:14;;;;;;;3.88;2.10;;;13.70;66.20;;;;;;4923862;29;20148;-69
2022/04/26 08:41:40;;;;;;;3.13;1.80;;;13.80;65.10;;;;;;4925475;29;20391;-69
2022/04/26 08:44:10;;;;;;;4.68;2.00;;;13.80;64.80;;;;;;4933606;29;20119;-69
2022/04/26 08:52:06;;;;;;;2.50;1.80;;;13.80;63.80;;;;;;4928325;29;19918;-70
2022/04/26 08:54:31;;;;;;;5.40;1.90;;;13.70;63.80;;;;;;4933452;29;20103;-70
2022/04/26 08:56:57;;;;;;;6.55;2.20;;;13.80;63.10;;;;;;4931827;29;20123;-68
2022/04/26 08:59:23;;;;;;;5.00;2.58;;;13.90;63.30;;;;;;4916140;29;20453;-69
2022/04/26 09:01:48;;;;;;;3.65;2.42;;;13.90;62.40;;;;;;4932759;29;20102;-69
2022/04/26 09:04:15;;;;;;;4.05;2.75;;;13.90;62.10;;;;;;4932901;29;20066;-69
2022/04/26 09:06:45;;;;;;;4.93;2.80;;;14.00;62.40;;;;;;4931831;29;20040;-68
2022/04/26 09:09:21;;;;;;;4.78;2.78;;;14.00;62.10;;;;;;4929188;29;20031;-68
2022/04/26 09:11:48;;;;;;;3.78;2.30;;;14.10;61.70;;;;;;4933955;29;20067;-68
2022/04/26 09:14:34;;;;;;;3.85;2.53;;;14.10;61.90;;;;;;4927532;29;20475;-68
2022/04/26 09:17:11;;;;;;;6.07;2.55;;;14.10;61.20;;;;;;4933480;29;20043;-69
2022/04/26 09:19:53;;;;;;;3.60;2.35;;;14.10;61.40;;;;;;4933437;29;20036;-69
2022/04/26 09:22:21;;;;;;;3.38;2.13;;;14.20;62.10;;;;;;4931972;29;20055;-69
2022/04/26 09:25:01;;;;;;;3.80;2.58;;;14.30;62.50;;;;;;4933314;29;20043;-70
2022/04/26 09:27:28;;;;;;;5.40;2.88;;;14.40;63.00;;;;;;4920939;29;20111;-69
2022/04/26 09:29:54;;;;;;;4.35;2.72;;;14.60;62.50;;;;;;4928895;29;20503;-69
2022/04/26 09:32:20;;;;;;;5.57;3.00;;;14.60;62.00;;;;;;4929550;29;20031;-68
2022/04/26 09:34:46;;;;;;;3.33;2.30;;;14.70;62.00;;;;;;4924202;29;20043;-69
2022/04/26 09:37:12;;;;;;;7.72;2.70;;;14.80;62.50;;;;;;4932554;29;20039;-68
2022/04/26 09:39:39;;;;;;;5.55;2.70;;;14.80;61.80;;;;;;4933428;29;20032;-68
2022/04/26 09:42:05;;;;;;;4.30;2.47;;;15.00;60.90;;;;;;4932435;29;20042;-68
2022/04/26 09:44:33;;;;;;;4.03;2.60;;;15.00;60.10;;;;;;4937138;29;20032;-69
2022/04/26 09:46:59;;;;;;;4.18;2.55;;;15.00;60.20;;;;;;4927745;29;20024;-69
2022/04/26 09:49:34;;;;;;;3.88;2.30;;;15.10;60.20;;;;;;4932760;29;20028;-69
2022/04/26 09:51:59;;;;;;;4.68;2.70;;;15.10;59.60;;;;;;4925079;29;20035;-71
2022/04/26 09:54:27;;;;;;;3.70;2.25;;;15.10;59.80;;;;;;4914790;29;20040;-68
2022/04/26 09:56:53;;;;;;;4.47;3.08;;;15.20;60.00;;;;;;4918968;29;20642;-69
2022/04/26 09:59:29;;;;;;;4.80;2.50;;;15.30;60.20;;;;;;4923035;29;20507;-69
2022/04/26 10:01:56;;;;;;;4.88;3.42;;;15.40;60.20;;;;;;4935411;29;20052;-69
2022/04/26 10:04:27;;;;;;;4.03;2.20;;;15.60;60.30;;;;;;4916621;29;20213;-69
2022/04/26 10:07:00;;;;;;;3.45;2.60;;;15.60;59.70;;;;;;4924365;29;20035;-68
2022/04/26 10:09:26;;;;;;;4.93;2.90;;;15.70;59.10;;;;;;4923367;29;20028;-68
2022/04/26 10:12:00;;;;;;;5.28;2.90;;;15.60;58.40;;;;;;4934950;29;20027;-68
2022/04/26 10:14:29;;;;;;;3.33;2.47;;;15.70;59.10;;;;;;4935741;29;20110;-68
2022/04/26 10:16:55;;;;;;;6.30;3.03;;;15.80;58.80;;;;;;4929295;29;20123;-68
2022/04/26 10:19:42;;;;;;;4.13;2.65;;;15.80;58.70;;;;;;4936021;29;20019;-69
2022/04/26 10:22:10;;;;;;;3.83;2.50;;;15.80;58.70;;;;;;4929287;29;20051;-69
2022/04/26 10:24:36;;;;;;;5.80;3.15;;;15.90;58.40;;;;;;4923106;29;20128;-69
2022/04/26 10:27:22;;;;;;;3.97;3.00;;;15.90;58.20;;;;;;4935385;29;20236;-69
2022/04/26 10:29:48;;;;;;;4.00;2.72;;;15.90;58.20;;;;;;4936652;29;20114;-69
2022/04/26 10:32:31;;;;;;;4.60;2.70;;;16.00;58.10;;;;;;4918014;29;20448;-69
2022/04/26 10:35:23;;;;;;;3.90;2.88;;;16.00;57.60;;;;;;4936224;29;20040;-69
2022/04/26 10:38:12;;;;;;;4.13;2.53;;;16.00;57.10;;;;;;4935256;29;20040;-69
2022/04/26 10:41:04;;;;;;;5.03;2.55;;;15.90;56.50;;;;;;4924137;29;20261;-69
2022/04/26 10:43:29;;;;;;;3.80;2.40;;;15.90;57.10;;;;;;4909204;29;20052;-69
2022/04/26 10:46:15;;;;;;;5.22;2.55;;;15.90;57.90;;;;;;4921848;29;20032;-70
2022/04/26 10:48:41;;;;;;;5.88;2.85;;;16.10;58.00;;;;;;4933017;29;20064;-70
2022/04/26 10:51:35;;;;;;;5.07;2.60;;;16.20;58.20;;;;;;4926929;29;20039;-69
2022/04/26 10:54:05;;;;;;;5.03;2.60;;;16.30;57.20;;;;;;4931264;29;20031;-71
2022/04/26 10:56:31;;;;;;;5.80;2.70;;;16.30;56.60;;;;;;4916193;29;20541;-70
2022/04/26 10:58:57;;;;;;;4.57;2.47;;;16.30;56.50;;;;;;4917000;29;20483;-72
2022/04/26 11:01:24;;;;;;;3.33;2.30;;;16.30;56.10;;;;;;4924365;29;20070;-71
2022/04/26 11:03:57;;;;;;;3.00;1.90;;;16.40;56.10;;;;;;4935199;29;20038;-70
2022/04/26 11:06:41;;;;;;;3.90;2.03;;;16.40;55.70;;;;;;4922761;29;20034;-70
2022/04/26 11:09:14;;;;;;;2.85;2.13;;;16.50;55.90;;;;;;4919096;29;20071;-70
2022/04/26 11:12:06;;;;;;;3.55;2.45;;;16.50;53.90;;;;;;4925560;29;20031;-70
2022/04/26 11:14:31;;;;;;;2.63;1.90;;;16.50;53.40;;;;;;4902673;29;20046;-70
2022/04/26 11:17:06;;;;;;;2.85;1.92;;;16.40;53.10;;;;;;4929777;29;20028;-70
2022/04/26 11:19:33;;;;;;;8.38;4.22;;;16.50;52.90;;;;;;4921372;29;20054;-71
2022/04/26 11:22:09;;;;;;;7.03;3.13;;;16.50;52.80;;;;;;4923487;29;20063;-70
2022/04/26 11:30:08;;;;;;;3.15;2.05;;;16.60;53.50;;;;;;4923720;29;20551;-70
2022/04/26 11:32:42;;;;;;;3.97;2.40;;;16.70;53.40;;;;;;4930751;29;20074;-70
2022/04/26 11:35:09;;;;;;;2.97;2.00;;;16.80;53.40;;;;;;4922386;29;20027;-69
2022/04/26 11:37:56;;;;;;;5.25;2.15;;;16.90;53.50;;;;;;4923883;29;20392;-70
2022/04/26 11:40:30;;;;;;;3.17;2.10;;;17.00;54.00;;;;;;4915777;29;20032;-70
2022/04/26 11:42:57;;;;;;;4.23;2.10;;;17.10;53.10;;;;;;4924419;29;20426;-70
2022/04/26 11:45:28;;;;;;;3.28;2.10;;;17.20;52.80;;;;;;4928861;29;20025;-70
2022/04/26 11:47:55;;;;;;;3.35;2.28;;;17.30;53.10;;;;;;4917341;29;20036;-69
2022/04/26 11:50:26;;;;;;;4.70;1.90;;;17.40;52.30;;;;;;4916082;29;20036;-71
2022/04/26 11:52:58;;;;;;;5.90;2.78;;;17.40;52.10;;;;;;4929380;29;20114;-70
2022/04/26 11:55:29;;;;;;;3.72;2.42;;;17.40;51.90;;;;;;4917492;29;20040;-71
2022/04/26 11:58:08;;;;;;;4.35;2.40;;;17.50;51.80;;;;;;4919389;29;21898;-70
2022/04/26 12:00:34;;;;;;;4.10;2.08;;;17.60;52.10;;;;;;4919183;29;20036;-70
2022/04/26 12:03:02;;;;;;;3.95;2.40;;;17.70;52.00;;;;;;4917291;29;20043;-71
2022/04/26 12:05:28;;;;;;;3.53;2.20;;;17.70;51.30;;;;;;4919520;29;20040;-70
2022/04/26 12:07:54;;;;;;;3.13;2.20;;;17.70;51.10;;;;;;4918145;29;20039;-70
2022/04/26 12:10:31;;;;;;;2.85;1.98;;;17.80;51.00;;;;;;4918295;29;20032;-71
2022/04/26 12:13:05;;;;;;;4.65;2.50;;;17.90;51.20;;;;;;4917205;29;20044;-71
2022/04/26 12:15:33;;;;;;;6.55;2.85;;;17.90;51.00;;;;;;4918670;29;20035;-70
2022/04/26 12:18:16;;;;;;;4.18;2.50;;;17.90;50.50;;;;;;4918665;29;20140;-71
2022/04/26 12:20:57;;;;;;;3.85;2.17;;;17.90;48.70;;;;;;4918424;29;20131;-70
2022/04/26 12:23:23;;;;;;;3.40;2.20;;;17.70;48.40;;;;;;4923639;29;20518;-71
2022/04/26 12:25:54;;;;;;;3.20;2.20;;;17.60;49.00;;;;;;4918413;29;20063;-70
2022/04/26 12:28:19;;;;;;;4.85;1.92;;;17.60;48.40;;;;;;4917394;29;20084;-71
2022/04/26 12:30:45;;;;;;;2.90;1.85;;;17.50;48.90;;;;;;4918710;29;20028;-71
2022/04/26 12:33:10;;;;;;;3.25;2.28;;;17.60;49.20;;;;;;4918670;29;20026;-71
2022/04/26 12:35:36;;;;;;;2.90;2.30;;;17.50;49.60;;;;;;4918165;29;20042;-71
2022/04/26 12:38:09;;;;;;;4.45;2.60;;;17.50;50.10;;;;;;4902920;29;20032;-71
2022/04/26 12:40:36;;;;;;;4.05;2.65;;;17.60;50.00;;;;;;4918148;29;20042;-71
2022/04/26 12:43:02;;;;;;;5.35;2.20;;;17.70;50.20;;;;;;4917418;29;20090;-72
2022/04/26 12:45:28;;;;;;;2.95;2.15;;;17.80;49.60;;;;;;4916198;29;20028;-70
2022/04/26 12:51:12;;;;;;;3.58;2.40;;;18.00;49.70;;;;;;4933359;29;20086;-71
2022/04/26 12:53:38;;;;;;;3.28;2.40;;;18.20;49.90;;;;;;4933897;29;20119;-71
2022/04/26 12:56:08;;;;;;;4.43;2.50;;;18.30;49.90;;;;;;4932665;29;20114;-70
2022/04/26 12:58:37;;;;;;;3.15;2.08;;;18.50;49.80;;;;;;4932752;29;20103;-71
2022/04/26 13:01:03;;;;;;;3.05;2.20;;;18.60;49.70;;;;;;4932506;29;20527;-72
2022/04/26 13:03:29;;;;;;;3.40;2.05;;;18.80;49.30;;;;;;4932458;29;20040;-73
2022/04/26 13:06:12;;;;;;;3.17;2.28;;;18.90;49.20;;;;;;4925036;29;20088;-74
2022/04/26 13:08:40;;;;;;;5.28;2.35;;;19.10;49.50;;;;;;4915688;29;20036;-73
2022/04/26 13:11:07;;;;;;;3.95;2.70;;;19.20;49.30;;;;;;4908402;29;20035;-73
2022/04/26 13:13:34;;;;;;;4.53;2.50;;;19.30;49.00;;;;;;4931980;29;20039;-74
2022/04/26 13:16:00;;;;;;;5.10;2.65;;;19.50;47.90;;;;;;4934188;29;20032;-74
2022/04/26 13:18:28;;;;;;;2.83;2.15;;;19.50;47.60;;;;;;4932753;29;20586;-74
2022/04/26 13:20:56;;;;;;;3.42;2.50;;;19.70;47.40;;;;;;4932355;29;20036;-74
2022/04/26 13:23:22;;;;;;;3.13;2.40;;;19.80;46.50;;;;;;4929393;29;20122;-74
2022/04/26 13:25:48;;;;;;;5.80;2.35;;;19.90;46.50;;;;;;4932432;29;20703;-74
2022/04/26 13:28:14;;;;;;;3.83;2.00;;;19.90;46.20;;;;;;4927949;29;20048;-73
2022/04/26 13:30:41;;;;;;;3.63;2.10;;;20.00;45.60;;;;;;4935272;29;20028;-75
2022/04/26 13:33:07;;;;;;;4.78;2.35;;;20.10;45.70;;;;;;4938023;29;20024;-74
2022/04/26 13:35:34;;;;;;;3.35;2.40;;;20.10;45.50;;;;;;4935415;29;20114;-75
2022/04/26 13:38:01;;;;;;;3.55;2.40;;;20.10;45.40;;;;;;4935469;29;20036;-73
2022/04/26 13:40:26;;;;;;;3.28;2.63;;;20.00;44.60;;;;;;4919103;29;20459;-74
2022/04/26 13:42:52;;;;;;;4.00;2.65;;;19.90;44.90;;;;;;4916769;29;20071;-75
2022/04/26 13:45:17;;;;;;;3.88;2.25;;;19.90;45.00;;;;;;4948157;29;20103;-75
2022/04/26 13:47:45;;;;;;;5.03;2.78;;;20.00;45.50;;;;;;4933983;29;20027;-75
2022/04/26 13:50:11;;;;;;;3.45;2.33;;;20.10;45.40;;;;;;4935401;29;20028;-74
2022/04/26 13:52:38;;;;;;;6.95;2.45;;;20.30;45.20;;;;;;4936430;29;20040;-74
2022/04/26 13:55:04;;;;;;;2.95;2.40;;;20.30;44.70;;;;;;4932932;29;20664;-75
2022/04/26 13:57:29;;;;;;;3.05;2.10;;;20.30;44.70;;;;;;4926671;29;20118;-74
2022/04/26 13:59:55;;;;;;;3.63;2.30;;;20.30;43.10;;;;;;4925205;29;20027;-74
2022/04/26 14:02:20;;;;;;;2.40;1.85;;;20.30;43.90;;;;;;4936971;29;20182;-74
2022/04/26 14:04:49;;;;;;;4.35;2.22;;;20.40;43.60;;;;;;4936887;29;20020;-75
2022/04/26 14:07:15;;;;;;;3.88;2.40;;;20.40;43.20;;;;;;4918125;29;20052;-74
2022/04/26 14:09:40;;;;;;;5.57;2.80;;;20.40;43.20;;;;;;4927717;29;20066;-77
2022/04/26 14:12:07;;;;;;;6.07;2.72;;;20.40;42.90;;;;;;4935874;29;20117;-72
2022/04/26 14:22:47;;;;;;;3.47;2.35;;;20.30;42.50;;;;;;4936258;29;20119;-74
2022/04/26 14:25:13;;;;;;;2.95;2.20;;;20.40;42.60;;;;;;4935530;29;20040;-72
2022/04/26 14:27:42;;;;;;;5.55;2.30;;;20.50;42.20;;;;;;4936229;29;20036;-74
2022/04/26 14:30:09;;;;;;;5.65;2.15;;;20.50;41.50;;;;;;4934755;29;20136;-74
2022/04/26 14:32:35;;;;;;;4.80;2.03;;;20.50;41.60;;;;;;4917494;29;20043;-74
2022/04/26 14:35:01;;;;;;;2.83;2.13;;;20.40;41.30;;;;;;4917526;29;20047;-73
2022/04/26 14:37:26;;;;;;;2.75;2.10;;;20.30;41.30;;;;;;4935305;29;20034;-73
2022/04/26 14:39:52;;;;;;;4.18;2.40;;;20.10;41.00;;;;;;4936444;29;20036;-74
2022/04/26 14:42:18;;;;;;;4.07;2.55;;;19.80;41.50;;;;;;4935556;29;20066;-74
2022/04/26 14:44:45;;;;;;;3.65;2.40;;;19.70;41.80;;;;;;4925071;29;20027;-73
2022/04/26 14:47:12;;;;;;;3.83;2.20;;;19.60;41.50;;;;;;4936199;29;20024;-72
2022/04/26 14:49:37;;;;;;;2.80;2.03;;;19.30;41.10;;;;;;4936169;29;20023;-73
2022/04/26 14:52:04;;;;;;;4.45;1.95;;;19.20;41.90;;;;;;4936066;29;20479;-73
2022/04/26 14:54:29;;;;;;;5.00;2.17;;;19.20;41.80;;;;;;4935551;29;20024;-74
2022/04/26 14:56:55;;;;;;;5.13;2.15;;;19.20;41.70;;;;;;4935783;29;20027;-74
2022/04/26 14:59:25;;;;;;;3.80;2.17;;;19.10;41.30;;;;;;4928408;29;20447;-74
2022/04/26 15:01:51;;;;;;;4.15;2.00;;;19.10;41.30;;;;;;4917051;29;20048;-74
2022/04/26 15:04:21;;;;;;;3.42;2.13;;;19.20;41.80;;;;;;4922269;29;20024;-75
2022/04/26 15:06:48;;;;;;;2.97;2.10;;;19.10;41.50;;;;;;4936245;29;20114;-74
2022/04/26 15:17:28;;;;;;;4.57;2.30;;;18.90;41.10;;;;;;4915155;29;20275;-73
2022/04/26 15:19:55;;;;;;;3.95;2.10;;;18.80;41.10;;;;;;4935078;29;20036;-74
2022/04/26 15:22:22;;;;;;;4.18;2.10;;;18.80;41.50;;;;;;4934829;29;20083;-73
2022/04/26 15:24:49;;;;;;;3.03;2.20;;;18.80;41.60;;;;;;4935009;29;20038;-73
2022/04/26 15:27:15;;;;;;;6.60;2.35;;;18.80;41.70;;;;;;4918421;29;20491;-74
2022/04/26 15:29:42;;;;;;;3.55;2.10;;;18.80;41.80;;;;;;4933922;29;20063;-74
2022/04/26 15:32:08;;;;;;;2.95;1.92;;;18.80;41.60;;;;;;4934905;29;20086;-73
2022/04/26 15:34:33;;;;;;;3.40;2.33;;;18.70;41.70;;;;;;4917876;29;20511;-73
2022/04/26 15:37:01;;;;;;;4.65;2.10;;;18.70;41.50;;;;;;4935075;29;20101;-74
2022/04/26 15:39:27;;;;;;;5.13;2.72;;;18.70;41.90;;;;;;4934727;29;20038;-74
2022/04/26 15:41:52;;;;;;;3.03;2.20;;;18.70;41.80;;;;;;4935537;29;20031;-72
2022/04/26 15:44:21;;;;;;;2.75;2.00;;;18.70;41.70;;;;;;4934376;29;20035;-73
2022/04/26 15:46:52;;;;;;;4.43;2.50;;;18.70;41.80;;;;;;4915245;29;20036;-73
2022/04/26 15:49:21;;;;;;;5.07;2.20;;;18.60;41.60;;;;;;4923266;29;20039;-73
2022/04/26 15:51:49;;;;;;;2.95;1.90;;;18.60;41.70;;;;;;4925370;29;20095;-74
2022/04/26 15:54:18;;;;;;;3.90;1.90;;;18.60;41.60;;;;;;4923173;29;20114;-74
2022/04/26 15:56:44;;;;;;;2.85;1.80;;;18.50;41.80;;;;;;4917688;29;20107;-74
2022/04/26 15:59:12;;;;;;;4.30;2.03;;;18.60;41.70;;;;;;4934674;29;20028;-74
2022/04/26 16:01:41;;;;;;;4.78;2.00;;;18.60;41.90;;;;;;4925813;29;20035;-74
2022/04/26 16:04:15;;;;;;;3.55;2.08;;;18.60;41.80;;;;;;4935016;29;20490;-74
2022/04/26 16:06:41;;;;;;;4.05;2.58;;;18.60;41.90;;;;;;4929666;29;20075;-73
2022/04/26 16:22:51;;;;;;;3.13;2.10;;;18.40;42.70;;;;;;4919899;29;20138;-74
2022/04/26 16:25:17;;;;;;;3.55;2.10;;;18.30;43.90;;;;;;4931807;29;20131;-73
2022/04/26 16:27:42;;;;;;;6.00;2.40;;;18.30;43.70;;;;;;4920222;29;20567;-73
2022/04/26 16:30:09;;;;;;;3.28;2.03;;;18.30;43.80;;;;;;4931124;29;20035;-73
2022/04/26 16:32:35;;;;;;;4.28;2.50;;;18.30;44.20;;;;;;4911516;29;20040;-73
2022/04/26 16:35:00;;;;;;;3.63;2.63;;;18.30;44.10;;;;;;4916592;29;20024;-75
2022/04/26 16:37:26;;;;;;;3.17;2.00;;;18.30;45.10;;;;;;4930918;29;20027;-70
2022/04/26 16:39:52;;;;;;;4.65;2.35;;;18.20;44.60;;;;;;4915805;29;20031;-73
2022/04/26 16:42:18;;;;;;;4.35;2.45;;;18.30;44.80;;;;;;4931924;29;20044;-73
2022/04/26 16:44:44;;;;;;;3.83;2.13;;;18.30;45.00;;;;;;4935342;29;20053;-73
2022/04/26 16:47:10;;;;;;;3.38;2.25;;;18.30;44.90;;;;;;4933141;29;20036;-74
2022/04/26 16:49:36;;;;;;;4.75;2.30;;;18.20;44.80;;;;;;4930409;29;21544;-74
2022/04/26 16:52:04;;;;;;;5.80;2.38;;;18.20;45.00;;;;;;4930913;29;20095;-75
2022/04/26 16:54:29;;;;;;;4.57;2.47;;;18.10;45.00;;;;;;4933527;29;20051;-74
2022/04/26 16:56:55;;;;;;;3.28;2.10;;;18.10;45.00;;;;;;4930372;29;20036;-74
2022/04/26 16:59:22;;;;;;;4.35;2.33;;;18.10;45.20;;;;;;4927016;29;20395;-74
2022/04/26 17:01:48;;;;;;;5.07;2.20;;;18.10;45.30;;;;;;4932480;29;20035;-74
2022/04/26 17:04:14;;;;;;;5.13;2.30;;;18.10;45.40;;;;;;4930550;29;20641;-74
2022/04/26 17:06:40;;;;;;;3.28;2.28;;;18.00;45.40;;;;;;4933078;29;20028;-74
2022/04/26 17:09:07;;;;;;;3.08;2.10;;;18.00;45.50;;;;;;4936671;29;20039;-75
2022/04/26 17:11:42;;;;;;;4.80;2.67;;;18.00;45.40;;;;;;4936173;29;20477;-74
2022/04/26 17:14:10;;;;;;;5.53;2.67;;;18.00;45.50;;;;;;4915902;29;20123;-73
2022/04/26 17:16:35;;;;;;;4.80;2.47;;;17.90;45.40;;;;;;4932131;29;20027;-74
2022/04/26 17:19:01;;;;;;;3.83;1.80;;;18.00;45.60;;;;;;4925270;29;20086;-74